Portada
METAR-TAF:

METAR-TAF

Aeropuertos :

Imperial Municipal Airport

Imperial, Nebraska, Estados Unidos

latitud: 40-31N, longitud: 101-37W, altitud: 997 m

Observación

El informe se hizo hace 25 minutos, a las 06:53 UTC
Viento 23 kt del sur con ráfagas de 39 kt
Temperatura 27°C
Humedad 37%
Presión 1006 hPa
Visibilidad: 16.1 km
Cielo despejado

METAR: KIML 070653Z AUTO 17023G39KT 10SM CLR 27/11 A2970 RMK AO2 PK WND 17039/0645 SLP007 T02720106 403720200

Hora: 01:18 (07:18 UTC)


TAF: falta

Observaciones y pronósticos meteorológicos de más de 4000 aeropuertos (mensajes METAR y TAF).

Los puntos amarillos y rojos representan las estaciones disponibles.

Ponga el ratón en el punto deseado para ver el nombre de la estación.

Haga clic para ver las observaciones y los pronósticos meteorológicos.

Para cambiar el mapa : haga clic en los botones verdes con una cruz de color negro para hacer un zoom, en el botón verde con un guión para alejar o en las flechas verdes para mapas adyacentes.


METAR-TAF: